Time;durP1;ratioP1;P1;durP2;ratioP2;P2;SDS_P1;SDS_P2;PMS_P1;PMS_P2;Temp;Humidity;BMP_temperature;BMP_pressure;BME280_temperature;BME280_humidity;BME280_pressure;Samples;Min_cycle;Max_cycle;Signal;HPM_P1;HPM_P2
2023/03/13 00:02:58;;;;;;;15.25;13.65;;;22.20;66.10;;;;;;6079602;28;89164;-69
2023/03/13 00:06:02;;;;;;;14.63;13.13;;;22.20;66.10;;;;;;6085958;28;88004;-69
2023/03/13 00:09:05;;;;;;;14.18;12.77;;;22.20;66.10;;;;;;6074246;28;89059;-68
2023/03/13 00:12:08;;;;;;;13.85;12.48;;;22.20;66.20;;;;;;6089782;28;88742;-69
2023/03/13 00:15:11;;;;;;;14.60;13.10;;;22.10;66.10;;;;;;6106185;28;89098;-68
2023/03/13 00:18:13;;;;;;;14.88;13.30;;;22.10;66.10;;;;;;6096250;28;89224;-68
2023/03/13 00:21:17;;;;;;;15.05;13.00;;;22.10;66.10;;;;;;6085109;28;89281;-69
2023/03/13 00:24:19;;;;;;;14.77;13.27;;;22.10;66.20;;;;;;6073882;28;89514;-69
2023/03/13 00:27:21;;;;;;;15.07;13.45;;;22.20;66.20;;;;;;6086494;28;88011;-68
2023/03/13 00:30:23;;;;;;;14.55;13.10;;;22.10;66.20;;;;;;6085130;28;89137;-68
2023/03/13 00:33:25;;;;;;;14.23;12.73;;;22.10;66.30;;;;;;6073013;28;89218;-68
2023/03/13 00:36:30;;;;;;;14.63;13.20;;;22.10;66.10;;;;;;6081967;28;89217;-69
2023/03/13 00:39:32;;;;;;;14.45;12.95;;;22.10;66.20;;;;;;6079641;28;89043;-68
2023/03/13 00:42:35;;;;;;;15.10;13.48;;;22.10;66.20;;;;;;6089346;28;86290;-69
2023/03/13 00:45:37;;;;;;;14.82;13.32;;;22.10;66.20;;;;;;6091201;28;89203;-68
2023/03/13 00:48:39;;;;;;;14.10;12.65;;;22.10;66.20;;;;;;6077647;28;88014;-69
2023/03/13 00:51:42;;;;;;;14.80;13.20;;;22.10;66.20;;;;;;6099306;28;90065;-68
2023/03/13 00:54:44;;;;;;;14.68;13.20;;;22.10;67.10;;;;;;6085478;28;89123;-68
2023/03/13 00:57:46;;;;;;;14.52;13.02;;;22.10;66.20;;;;;;6081119;28;89117;-68
2023/03/13 01:00:48;;;;;;;14.30;12.90;;;22.00;66.10;;;;;;6093604;28;87995;-68
2023/03/13 01:03:52;;;;;;;12.82;10.55;;;22.00;66.90;;;;;;6089853;28;89145;-68
2023/03/13 01:06:55;;;;;;;11.35;9.90;;;22.00;67.20;;;;;;6085586;28;89458;-68
2023/03/13 01:09:57;;;;;;;12.07;10.77;;;22.00;67.10;;;;;;6092802;28;89226;-68
2023/03/13 01:12:59;;;;;;;11.52;10.32;;;22.10;67.40;;;;;;6096405;28;88253;-68
2023/03/13 01:16:05;;;;;;;11.82;10.63;;;22.00;67.40;;;;;;6090991;28;87971;-68
2023/03/13 01:19:10;;;;;;;11.93;10.73;;;22.00;67.30;;;;;;6092954;28;89060;-68
2023/03/13 01:22:13;;;;;;;12.57;11.15;;;22.00;67.40;;;;;;6086573;28;90040;-69
2023/03/13 01:25:16;;;;;;;12.63;11.40;;;22.00;67.40;;;;;;6086340;28;89084;-68
2023/03/13 01:28:18;;;;;;;12.23;11.02;;;22.00;67.30;;;;;;6073132;28;91657;-68
2023/03/13 01:31:22;;;;;;;11.95;10.65;;;22.00;67.40;;;;;;6083814;28;89073;-68
2023/03/13 01:34:25;;;;;;;12.27;10.98;;;22.00;67.30;;;;;;6085458;28;89191;-69
2023/03/13 01:37:28;;;;;;;12.02;10.73;;;22.00;67.30;;;;;;6086905;28;89059;-68
2023/03/13 01:40:30;;;;;;;12.35;11.02;;;22.00;67.20;;;;;;6093578;28;89108;-68
2023/03/13 01:43:34;;;;;;;12.88;11.00;;;22.00;67.20;;;;;;6083704;28;87281;-68
2023/03/13 01:46:36;;;;;;;12.45;11.25;;;22.00;67.20;;;;;;6082819;28;89174;-68
2023/03/13 01:49:38;;;;;;;12.50;11.18;;;22.00;67.20;;;;;;6084586;28;89405;-68
2023/03/13 01:52:42;;;;;;;12.77;11.48;;;22.00;67.20;;;;;;6081410;28;90148;-69
2023/03/13 01:55:44;;;;;;;14.20;11.45;;;22.00;67.20;;;;;;6078997;28;88007;-68
2023/03/13 01:58:49;;;;;;;12.13;10.93;;;22.00;67.10;;;;;;6081478;28;89069;-69
2023/03/13 02:01:55;;;;;;;11.77;10.57;;;22.00;67.20;;;;;;6084999;28;89061;-68
2023/03/13 02:05:02;;;;;;;12.68;11.38;;;22.00;67.10;;;;;;6084150;28;87984;-68
2023/03/13 02:08:09;;;;;;;11.85;10.65;;;22.00;67.20;;;;;;6083414;28;88973;-68
2023/03/13 02:11:22;;;;;;;11.60;10.48;;;21.90;67.20;;;;;;6081922;28;89064;-68
2023/03/13 02:14:28;;;;;;;12.15;10.95;;;21.90;67.10;;;;;;6080212;28;88402;-68
2023/03/13 02:17:30;;;;;;;11.30;10.20;;;21.90;67.10;;;;;;6078109;28;89173;-68
2023/03/13 02:20:32;;;;;;;11.73;10.63;;;21.90;67.10;;;;;;6083516;28;89080;-69
2023/03/13 02:23:41;;;;;;;12.65;11.38;;;21.90;66.90;;;;;;6090189;28;90067;-68
2023/03/13 02:26:44;;;;;;;11.98;10.77;;;21.90;66.90;;;;;;6079475;28;90075;-69
2023/03/13 02:29:46;;;;;;;11.70;10.50;;;21.90;67.00;;;;;;6090997;28;89082;-68
2023/03/13 02:32:48;;;;;;;11.68;10.48;;;21.90;66.90;;;;;;6086885;28;90649;-69
2023/03/13 02:35:51;;;;;;;12.10;10.90;;;21.90;67.80;;;;;;6089155;28;89138;-68
2023/03/13 02:38:58;;;;;;;11.85;10.75;;;21.90;66.90;;;;;;6088413;28;89050;-68
2023/03/13 02:42:02;;;;;;;11.45;10.35;;;21.80;66.80;;;;;;6091212;28;89130;-68
2023/03/13 02:45:05;;;;;;;12.00;10.80;;;21.90;66.90;;;;;;6092153;28;88330;-69
2023/03/13 02:48:07;;;;;;;12.48;11.27;;;21.90;66.90;;;;;;6090776;28;89274;-68
2023/03/13 02:51:16;;;;;;;12.32;11.13;;;21.90;66.90;;;;;;6096483;28;88264;-68
2023/03/13 02:54:21;;;;;;;11.32;10.23;;;21.90;66.80;;;;;;6100709;28;90035;-68
2023/03/13 02:57:24;;;;;;;11.77;10.57;;;21.90;66.70;;;;;;6088054;28;88775;-68
2023/03/13 03:00:26;;;;;;;12.23;10.93;;;21.80;66.70;;;;;;6090192;28;89054;-69
2023/03/13 03:03:28;;;;;;;12.63;11.32;;;21.80;66.70;;;;;;6083581;28;89002;-69
2023/03/13 03:06:31;;;;;;;12.05;10.85;;;21.80;66.60;;;;;;6091651;28;89083;-69
2023/03/13 03:09:33;;;;;;;12.07;10.98;;;21.90;66.70;;;;;;6090712;28;87941;-68
2023/03/13 03:12:36;;;;;;;12.50;11.20;;;21.80;66.60;;;;;;6091140;28;89308;-69
2023/03/13 03:15:38;;;;;;;11.88;10.68;;;21.80;66.60;;;;;;6091930;28;88929;-68
2023/03/13 03:18:41;;;;;;;11.82;10.63;;;21.80;66.60;;;;;;6102304;28;89425;-69
2023/03/13 03:21:43;;;;;;;11.93;10.73;;;21.80;66.70;;;;;;6103912;28;89157;-69
2023/03/13 03:24:45;;;;;;;11.93;10.73;;;21.90;66.70;;;;;;6090933;28;90378;-68
2023/03/13 03:27:48;;;;;;;11.60;10.40;;;21.80;66.70;;;;;;6090157;28;89468;-69
2023/03/13 03:30:53;;;;;;;13.07;11.15;;;21.80;66.60;;;;;;6091126;28;89064;-69
2023/03/13 03:33:55;;;;;;;12.05;10.85;;;21.80;66.60;;;;;;6087555;28;89064;-69
2023/03/13 03:36:57;;;;;;;12.20;10.95;;;21.80;66.60;;;;;;6074571;28;89399;-69
2023/03/13 03:39:59;;;;;;;11.77;10.57;;;21.80;66.60;;;;;;6087007;28;88993;-69
2023/03/13 03:43:03;;;;;;;12.52;11.23;;;21.80;66.60;;;;;;6085951;28;89157;-69
2023/03/13 03:46:05;;;;;;;11.88;10.77;;;21.80;66.60;;;;;;6076862;28;88406;-69
2023/03/13 03:49:07;;;;;;;12.23;10.95;;;21.80;66.60;;;;;;6086127;28;89044;-69
2023/03/13 03:52:09;;;;;;;12.13;10.93;;;21.70;66.50;;;;;;6086355;28;89174;-68
2023/03/13 03:55:11;;;;;;;11.88;10.68;;;21.80;66.60;;;;;;6080393;28;90071;-69
2023/03/13 03:58:15;;;;;;;11.88;10.77;;;21.70;66.50;;;;;;6087211;28;89182;-69
2023/03/13 04:01:16;;;;;;;11.73;10.60;;;21.80;66.50;;;;;;6078692;28;89093;-68
2023/03/13 04:04:19;;;;;;;12.27;11.07;;;21.70;66.50;;;;;;6091160;28;89369;-69
2023/03/13 04:07:21;;;;;;;11.75;10.57;;;21.70;66.40;;;;;;6090126;28;89112;-69
2023/03/13 04:10:22;;;;;;;11.80;10.65;;;21.70;66.40;;;;;;6099184;28;88598;-69
2023/03/13 04:13:26;;;;;;;11.23;10.13;;;21.70;66.40;;;;;;6088548;28;88935;-69
2023/03/13 04:16:28;;;;;;;12.27;11.02;;;21.80;66.50;;;;;;6098476;28;88741;-68
2023/03/13 04:19:30;;;;;;;11.85;10.65;;;21.70;66.40;;;;;;6083908;28;89076;-69
2023/03/13 04:22:32;;;;;;;11.30;10.20;;;21.70;66.40;;;;;;6097295;28;89101;-68
2023/03/13 04:25:34;;;;;;;11.70;10.50;;;21.70;66.40;;;;;;6085444;28;90093;-68
2023/03/13 04:28:38;;;;;;;11.65;10.52;;;21.70;66.40;;;;;;6085876;28;89023;-68
2023/03/13 04:31:40;;;;;;;11.40;10.30;;;21.70;66.40;;;;;;6085715;28;89436;-69
2023/03/13 04:34:42;;;;;;;11.68;10.55;;;21.70;66.40;;;;;;6080475;28;89109;-68
2023/03/13 04:37:44;;;;;;;12.23;11.02;;;21.70;66.50;;;;;;6081734;28;89606;-68
2023/03/13 04:40:46;;;;;;;11.68;10.48;;;21.70;66.40;;;;;;6088847;28;88993;-69
2023/03/13 04:43:50;;;;;;;11.43;10.32;;;21.70;66.50;;;;;;6089915;28;89074;-68
2023/03/13 04:46:52;;;;;;;11.27;10.18;;;21.70;66.50;;;;;;6091311;28;88476;-68
2023/03/13 04:49:54;;;;;;;11.20;10.10;;;21.70;66.40;;;;;;6098151;28;89099;-68
2023/03/13 04:52:56;;;;;;;12.48;11.02;;;21.70;66.20;;;;;;6096513;28;89418;-68
2023/03/13 04:55:58;;;;;;;12.27;11.05;;;21.70;66.20;;;;;;6097413;28;90045;-68
2023/03/13 04:59:01;;;;;;;11.23;10.10;;;21.70;66.10;;;;;;6097405;28;89025;-68
2023/03/13 05:02:03;;;;;;;11.10;10.00;;;21.70;66.00;;;;;;6075042;28;89068;-68
2023/03/13 05:05:06;;;;;;;10.77;9.65;;;21.70;65.90;;;;;;6082382;28;88985;-68
2023/03/13 05:08:09;;;;;;;11.27;10.07;;;21.70;65.90;;;;;;6081868;28;89115;-68
2023/03/13 05:11:11;;;;;;;11.00;9.90;;;21.70;65.90;;;;;;6084750;28;89330;-68
2023/03/13 05:14:15;;;;;;;11.30;10.20;;;21.70;65.90;;;;;;6087825;28;89258;-68
2023/03/13 05:17:17;;;;;;;10.82;9.77;;;21.70;65.90;;;;;;6094667;28;88282;-68
2023/03/13 05:20:19;;;;;;;11.02;9.93;;;21.80;65.90;;;;;;6096406;28;88278;-68
2023/03/13 05:23:21;;;;;;;11.05;9.95;;;21.70;65.80;;;;;;6095821;28;89102;-68
2023/03/13 05:26:23;;;;;;;10.60;9.50;;;21.80;65.80;;;;;;6083605;28;88979;-69
2023/03/13 05:29:27;;;;;;;11.13;10.02;;;21.80;65.90;;;;;;6085323;28;89318;-68
2023/03/13 05:32:29;;;;;;;10.27;9.27;;;21.80;65.90;;;;;;6096018;28;87969;-68
2023/03/13 05:35:31;;;;;;;10.82;9.73;;;21.80;65.90;;;;;;6082023;28;89065;-68
2023/03/13 05:38:33;;;;;;;10.18;9.18;;;21.80;66.00;;;;;;6078533;28;89169;-68
2023/03/13 05:41:35;;;;;;;10.32;9.20;;;21.80;66.00;;;;;;6084927;28;89037;-69
2023/03/13 05:44:38;;;;;;;9.57;8.65;;;21.80;66.00;;;;;;6098218;28;89288;-68
2023/03/13 05:47:40;;;;;;;10.38;9.38;;;21.80;65.90;;;;;;6083863;28;88351;-68
2023/03/13 05:50:42;;;;;;;10.00;9.00;;;21.80;65.90;;;;;;6077419;28;89064;-68
2023/03/13 05:53:44;;;;;;;10.40;9.32;;;21.80;65.90;;;;;;6082730;28;89049;-68
2023/03/13 05:56:49;;;;;;;10.13;9.13;;;21.80;65.90;;;;;;6082939;28;90051;-68
2023/03/13 05:59:52;;;;;;;11.88;9.32;;;21.80;66.00;;;;;;6082101;28;89507;-68
2023/03/13 06:02:54;;;;;;;10.55;9.48;;;21.90;66.20;;;;;;6091100;28;89044;-67
2023/03/13 06:05:58;;;;;;;11.43;9.85;;;21.90;66.40;;;;;;6091250;28;89098;-67
2023/03/13 06:09:00;;;;;;;10.10;9.10;;;21.90;66.40;;;;;;6084640;28;89148;-68
2023/03/13 06:12:02;;;;;;;10.43;9.40;;;22.00;66.60;;;;;;6094210;28;90608;-68
2023/03/13 06:15:08;;;;;;;10.23;9.23;;;22.00;66.60;;;;;;6085080;28;89391;-67
2023/03/13 06:18:10;;;;;;;11.10;10.00;;;22.00;66.60;;;;;;6095766;28;87668;-66
2023/03/13 06:21:12;;;;;;;11.55;10.00;;;22.00;66.70;;;;;;6083637;28;89186;-69
2023/03/13 06:24:14;;;;;;;10.70;9.60;;;22.00;66.70;;;;;;6071743;28;89035;-68
2023/03/13 06:27:16;;;;;;;11.82;10.23;;;22.00;66.50;;;;;;6071001;28;90420;-69
2023/03/13 06:30:20;;;;;;;9.77;8.88;;;22.00;66.50;;;;;;6080060;28;89166;-68
2023/03/13 06:33:22;;;;;;;10.45;9.35;;;22.00;66.30;;;;;;6072179;28;89079;-69
2023/03/13 06:36:25;;;;;;;10.35;9.35;;;22.00;66.20;;;;;;6075446;28;89173;-68
2023/03/13 06:39:27;;;;;;;10.50;9.50;;;22.00;66.10;;;;;;6075115;28;88995;-68
2023/03/13 06:42:29;;;;;;;10.45;9.45;;;22.00;66.00;;;;;;6071568;28;89434;-69
2023/03/13 06:45:34;;;;;;;9.98;8.98;;;22.10;66.10;;;;;;6081459;28;89405;-69
2023/03/13 06:48:36;;;;;;;10.48;9.40;;;22.10;66.10;;;;;;6083390;28;88528;-69
2023/03/13 06:51:38;;;;;;;9.40;8.50;;;22.10;66.10;;;;;;6080020;28;89599;-69
2023/03/13 06:54:41;;;;;;;9.27;8.27;;;22.10;66.00;;;;;;6079097;28;89192;-68
2023/03/13 06:57:43;;;;;;;10.02;9.02;;;22.00;65.90;;;;;;6065105;28;90003;-69
2023/03/13 07:00:46;;;;;;;9.40;8.52;;;22.10;66.00;;;;;;6069866;28;89075;-69
2023/03/13 07:03:49;;;;;;;9.45;8.55;;;22.10;65.90;;;;;;6075296;28;89214;-68
2023/03/13 07:06:51;;;;;;;9.70;8.70;;;22.10;65.90;;;;;;6066796;28;88880;-69
2023/03/13 07:09:53;;;;;;;9.93;8.93;;;22.10;65.90;;;;;;6070096;28;89115;-69
2023/03/13 07:12:56;;;;;;;9.80;8.82;;;22.10;65.90;;;;;;6079867;28;89074;-68
2023/03/13 07:16:18;;;;;;;9.18;8.27;;;22.10;65.90;;;;;;6066500;28;89249;-68
2023/03/13 07:19:20;;;;;;;10.20;8.82;;;22.10;65.90;;;;;;6080996;28;88220;-70
2023/03/13 07:22:22;;;;;;;10.70;8.70;;;22.10;65.90;;;;;;6083486;28;89627;-70
2023/03/13 07:25:24;;;;;;;11.52;9.02;;;22.10;65.90;;;;;;6077551;28;89071;-70
2023/03/13 07:28:28;;;;;;;9.57;8.57;;;22.10;66.00;;;;;;6083321;28;89999;-69
2023/03/13 07:31:32;;;;;;;9.38;8.48;;;22.10;65.90;;;;;;6082771;28;89458;-69
2023/03/13 07:34:34;;;;;;;9.45;8.40;;;22.10;65.90;;;;;;6083615;28;89094;-70
2023/03/13 07:37:36;;;;;;;9.75;8.73;;;22.20;66.00;;;;;;6076702;28;88319;-69
2023/03/13 07:40:38;;;;;;;9.38;8.25;;;22.10;65.90;;;;;;6074191;28;87928;-70
2023/03/13 07:43:41;;;;;;;8.82;7.78;;;22.10;65.90;;;;;;6078617;28;89152;-69
2023/03/13 07:46:44;;;;;;;9.05;8.18;;;22.20;66.00;;;;;;6075071;28;89058;-70
2023/03/13 07:49:46;;;;;;;8.95;7.95;;;22.20;66.00;;;;;;6073848;28;88644;-70
2023/03/13 07:52:49;;;;;;;8.90;7.93;;;22.20;65.90;;;;;;6070771;28;89346;-70
2023/03/13 07:55:55;;;;;;;8.73;7.82;;;22.20;66.00;;;;;;6077303;28;88016;-70
2023/03/13 07:58:57;;;;;;;8.25;7.35;;;22.20;66.10;;;;;;6082294;28;90054;-70
2023/03/13 08:02:02;;;;;;;8.43;7.60;;;22.20;66.00;;;;;;6073323;28;89128;-69
2023/03/13 08:05:04;;;;;;;7.80;7.10;;;22.20;66.10;;;;;;6083953;28;89163;-70
2023/03/13 08:08:06;;;;;;;8.02;7.22;;;22.20;66.00;;;;;;6076539;28;88136;-70
2023/03/13 08:11:11;;;;;;;8.30;7.50;;;22.20;66.10;;;;;;6075461;28;89133;-69
2023/03/13 08:14:13;;;;;;;8.60;7.75;;;22.20;66.00;;;;;;6070874;28;89479;-69
2023/03/13 08:17:16;;;;;;;7.70;7.00;;;22.20;66.00;;;;;;6071938;28;89068;-69
2023/03/13 08:20:18;;;;;;;8.27;7.18;;;22.20;66.00;;;;;;6068910;28;88089;-70
2023/03/13 08:23:20;;;;;;;8.10;7.35;;;22.20;66.00;;;;;;6069258;28;89180;-69
2023/03/13 08:26:24;;;;;;;7.63;6.85;;;22.30;66.10;;;;;;6070690;28;89173;-70
2023/03/13 08:29:26;;;;;;;8.15;7.35;;;22.20;66.00;;;;;;6077566;28;90400;-69
2023/03/13 08:32:32;;;;;;;7.88;7.07;;;22.30;66.10;;;;;;6076011;28;89174;-70
2023/03/13 08:35:34;;;;;;;10.45;7.35;;;22.20;65.90;;;;;;6080470;28;90709;-69
2023/03/13 08:38:37;;;;;;;7.45;6.75;;;22.30;66.10;;;;;;6083032;28;88028;-70
2023/03/13 08:41:39;;;;;;;7.15;6.43;;;22.30;66.10;;;;;;6084527;28;87076;-70
2023/03/13 08:44:41;;;;;;;7.65;6.85;;;22.30;66.10;;;;;;6082912;28;88308;-70
2023/03/13 08:47:45;;;;;;;8.27;7.03;;;22.30;66.10;;;;;;6073460;28;89228;-70
2023/03/13 08:50:47;;;;;;;6.90;6.20;;;22.30;66.10;;;;;;6079037;28;88553;-70
2023/03/13 08:53:50;;;;;;;6.93;6.32;;;22.30;66.20;;;;;;6070864;28;89085;-70
2023/03/13 08:56:52;;;;;;;6.97;6.30;;;22.30;66.10;;;;;;6079231;28;89129;-69
2023/03/13 08:59:54;;;;;;;6.97;6.28;;;22.30;66.10;;;;;;6074083;28;90137;-70
2023/03/13 09:02:59;;;;;;;6.97;6.30;;;22.30;66.10;;;;;;6067482;28;89069;-70
2023/03/13 09:06:01;;;;;;;6.88;6.15;;;22.30;66.10;;;;;;6067320;28;88955;-70
2023/03/13 09:09:04;;;;;;;7.18;6.47;;;22.30;66.10;;;;;;6085511;28;89127;-70
2023/03/13 09:12:07;;;;;;;6.68;6.07;;;22.30;66.10;;;;;;6080568;28;89365;-70
2023/03/13 09:15:10;;;;;;;6.97;6.30;;;22.30;66.10;;;;;;6063901;28;89726;-70
2023/03/13 09:18:14;;;;;;;6.53;5.93;;;22.30;66.10;;;;;;6090069;28;89435;-70
2023/03/13 09:21:18;;;;;;;6.88;6.18;;;22.30;66.10;;;;;;6086699;28;88749;-70
2023/03/13 09:24:20;;;;;;;7.00;6.30;;;22.30;66.20;;;;;;6068159;28;89049;-69
2023/03/13 09:27:22;;;;;;;6.38;5.72;;;22.30;66.10;;;;;;6068158;28;89178;-70
2023/03/13 09:30:24;;;;;;;6.60;5.90;;;22.30;66.10;;;;;;6075538;28;88894;-69
2023/03/13 09:33:27;;;;;;;6.57;5.97;;;22.30;66.20;;;;;;6062201;28;89359;-70
2023/03/13 09:36:29;;;;;;;5.90;5.40;;;22.30;66.20;;;;;;6067105;28;89054;-70
2023/03/13 09:39:31;;;;;;;6.30;5.70;;;22.30;66.20;;;;;;6073517;28;89084;-70
2023/03/13 09:42:44;;;;;;;6.47;5.88;;;22.30;66.10;;;;;;6071402;28;89559;-70
2023/03/13 09:45:48;;;;;;;5.85;5.32;;;22.30;66.20;;;;;;6077106;28;89574;-70
2023/03/13 09:48:57;;;;;;;6.28;5.68;;;22.30;66.20;;;;;;6077340;28;89318;-70
2023/03/13 09:52:12;;;;;;;6.20;5.60;;;22.30;66.20;;;;;;6064380;28;88324;-70
2023/03/13 09:55:20;;;;;;;6.55;5.78;;;22.40;66.30;;;;;;6078025;28;87972;-69
2023/03/13 09:58:25;;;;;;;6.40;5.80;;;22.30;66.20;;;;;;6068893;28;88983;-70
2023/03/13 10:01:30;;;;;;;6.22;5.60;;;22.30;66.20;;;;;;6062883;28;90162;-70
2023/03/13 10:04:39;;;;;;;6.10;5.50;;;22.30;66.20;;;;;;6073387;28;89045;-70
2023/03/13 10:07:42;;;;;;;6.07;5.47;;;22.30;66.20;;;;;;6075667;28;89049;-70
2023/03/13 10:10:47;;;;;;;6.13;5.43;;;22.30;66.20;;;;;;6074408;28;89076;-70
2023/03/13 10:13:52;;;;;;;6.22;5.63;;;22.40;66.40;;;;;;6075458;28;89129;-70
2023/03/13 10:16:59;;;;;;;7.35;6.03;;;22.40;66.40;;;;;;6067501;28;88922;-69
2023/03/13 10:20:17;;;;;;;6.55;5.60;;;22.30;66.40;;;;;;6077628;28;89135;-70
2023/03/13 10:23:26;;;;;;;6.97;5.50;;;22.40;66.50;;;;;;6084413;28;88790;-70
2023/03/13 10:26:30;;;;;;;7.07;5.95;;;22.40;66.60;;;;;;6079709;28;88207;-70
2023/03/13 10:29:32;;;;;;;6.80;6.03;;;22.40;66.50;;;;;;6072787;28;88888;-69
2023/03/13 10:32:34;;;;;;;6.32;5.53;;;22.40;66.60;;;;;;6069132;28;90234;-70
2023/03/13 10:35:40;;;;;;;10.27;6.90;;;22.40;66.60;;;;;;6069843;28;89076;-70
2023/03/13 10:38:51;;;;;;;6.03;5.43;;;22.40;66.60;;;;;;6073176;28;89130;-70
2023/03/13 10:41:59;;;;;;;6.35;5.55;;;22.40;66.60;;;;;;6088904;28;90034;-70
2023/03/13 10:45:05;;;;;;;6.63;5.63;;;22.40;66.60;;;;;;6079782;28;89248;-70
2023/03/13 10:48:13;;;;;;;5.97;5.32;;;22.30;66.60;;;;;;6079481;28;89311;-70
2023/03/13 10:51:22;;;;;;;6.28;5.60;;;22.40;66.70;;;;;;6079449;28;89956;-70
2023/03/13 10:54:26;;;;;;;5.95;5.32;;;22.40;66.70;;;;;;6087208;28;88478;-70
2023/03/13 10:57:32;;;;;;;6.72;5.55;;;22.40;66.70;;;;;;6086779;28;89075;-70
2023/03/13 11:00:37;;;;;;;6.28;5.68;;;22.40;66.70;;;;;;6086446;28;88956;-70
2023/03/13 11:03:39;;;;;;;6.75;5.70;;;22.40;66.70;;;;;;6082373;28;89901;-70
2023/03/13 11:06:43;;;;;;;7.03;5.70;;;22.40;66.70;;;;;;6067943;28;89412;-70
2023/03/13 11:09:58;;;;;;;7.82;5.75;;;22.40;66.70;;;;;;6067801;28;89126;-70
2023/03/13 11:13:00;;;;;;;6.53;5.53;;;22.40;66.70;;;;;;6066209;28;89159;-69
2023/03/13 11:16:15;;;;;;;6.90;5.53;;;22.40;66.70;;;;;;6071200;28;89132;-70
2023/03/13 11:19:42;;;;;;;6.57;5.63;;;22.40;66.80;;;;;;6079894;28;89232;-70
2023/03/13 11:22:53;;;;;;;7.75;5.68;;;22.40;66.90;;;;;;6066078;28;89050;-67
2023/03/13 11:26:07;;;;;;;7.68;5.97;;;22.40;67.00;;;;;;6077246;28;87248;-77
2023/03/13 11:29:19;;;;;;;6.55;5.55;;;22.40;67.10;;;;;;6076445;28;89320;-75
2023/03/13 11:32:26;;;;;;;6.50;5.47;;;22.40;68.80;;;;;;6083141;28;89185;-70
2023/03/13 11:35:39;;;;;;;8.68;6.03;;;22.50;68.50;;;;;;6081541;28;88934;-71
2023/03/13 11:38:46;;;;;;;6.65;5.70;;;22.50;68.30;;;;;;6077861;28;89136;-72
2023/03/13 11:41:59;;;;;;;6.30;5.32;;;22.50;68.40;;;;;;6082509;28;89138;-70
2023/03/13 11:45:08;;;;;;;7.78;6.07;;;22.50;68.40;;;;;;6082360;28;89167;-69
2023/03/13 11:48:21;;;;;;;6.97;5.55;;;22.50;68.50;;;;;;6084508;28;89045;-68
2023/03/13 11:51:28;;;;;;;6.18;5.22;;;22.50;68.40;;;;;;6075699;28;89067;-69
2023/03/13 11:54:56;;;;;;;6.75;5.70;;;22.50;68.30;;;;;;6073505;28;89107;-69
2023/03/13 11:58:21;;;;;;;6.65;5.38;;;22.50;68.20;;;;;;6082352;28;88488;-69
2023/03/13 12:01:26;;;;;;;7.00;5.32;;;22.60;68.20;;;;;;6068368;28;89122;-69
2023/03/13 12:04:34;;;;;;;5.93;5.22;;;22.60;68.10;;;;;;6078999;28;89130;-69
2023/03/13 12:07:39;;;;;;;6.22;5.20;;;22.60;68.10;;;;;;6068487;28;88910;-69
2023/03/13 12:10:47;;;;;;;5.35;4.85;;;22.60;67.90;;;;;;6073009;28;89182;-69
2023/03/13 12:13:54;;;;;;;6.80;5.30;;;22.60;67.90;;;;;;6084177;28;89152;-69
2023/03/13 12:17:00;;;;;;;6.18;5.35;;;22.60;67.70;;;;;;6071583;28;89524;-69
2023/03/13 12:20:08;;;;;;;5.80;5.20;;;22.60;67.70;;;;;;6090018;28;89385;-70
2023/03/13 12:23:34;;;;;;;6.60;5.10;;;22.60;67.70;;;;;;6086236;28;89186;-69
2023/03/13 12:26:44;;;;;;;6.10;5.07;;;22.60;67.70;;;;;;6072732;28;89503;-69
2023/03/13 12:29:58;;;;;;;5.95;5.15;;;22.60;67.70;;;;;;6077379;28;88420;-69
2023/03/13 12:33:10;;;;;;;6.13;5.45;;;22.60;67.70;;;;;;6079811;28;89428;-69
2023/03/13 12:36:16;;;;;;;5.38;4.72;;;22.60;67.70;;;;;;6071974;28;89099;-69
2023/03/13 12:39:26;;;;;;;6.43;4.97;;;22.60;67.70;;;;;;6071711;28;90311;-69
2023/03/13 12:42:43;;;;;;;5.80;4.32;;;22.60;67.70;;;;;;6072830;28;89031;-69
2023/03/13 12:46:05;;;;;;;6.88;5.50;;;22.60;67.70;;;;;;6079378;28;89175;-69
2023/03/13 12:49:28;;;;;;;5.97;4.85;;;22.60;67.70;;;;;;6044311;28;89082;-70
2023/03/13 12:52:59;;;;;;;5.68;4.80;;;22.60;67.70;;;;;;6073653;28;89203;-69
2023/03/13 12:56:26;;;;;;;6.68;5.22;;;22.60;67.70;;;;;;6077074;28;89488;-69
2023/03/13 12:59:35;;;;;;;6.20;4.75;;;22.60;67.70;;;;;;6074662;28;90235;-69
2023/03/13 13:02:37;;;;;;;6.25;5.30;;;22.60;67.70;;;;;;6070317;28;88742;-69
2023/03/13 13:05:39;;;;;;;5.88;5.03;;;22.60;67.70;;;;;;6080364;28;89131;-69
2023/03/13 13:08:43;;;;;;;5.68;5.07;;;22.60;67.70;;;;;;6083756;28;89243;-69
2023/03/13 13:11:48;;;;;;;5.10;4.60;;;22.60;67.70;;;;;;6076500;28;90089;-69
2023/03/13 13:15:12;;;;;;;5.85;4.90;;;22.60;67.70;;;;;;6080216;28;89108;-69
2023/03/13 13:18:24;;;;;;;5.45;4.65;;;22.60;67.70;;;;;;6076831;28;89719;-69
2023/03/13 13:21:26;;;;;;;6.10;4.65;;;22.60;67.70;;;;;;6085777;28;89037;-69
2023/03/13 13:24:40;;;;;;;6.45;4.55;;;22.60;67.70;;;;;;6073233;28;89144;-69
2023/03/13 13:27:46;;;;;;;5.10;4.43;;;22.60;67.70;;;;;;6077476;28;89356;-69
2023/03/13 13:30:50;;;;;;;6.18;4.85;;;22.70;67.90;;;;;;6066896;28;89486;-68
2023/03/13 13:33:52;;;;;;;5.32;4.43;;;22.70;67.80;;;;;;6068153;28;88860;-69
2023/03/13 13:36:55;;;;;;;6.70;4.80;;;22.60;67.70;;;;;;6075643;28;89379;-68
2023/03/13 13:40:22;;;;;;;5.15;4.38;;;22.70;67.80;;;;;;6086347;28;89914;-68
2023/03/13 13:43:25;;;;;;;4.63;4.13;;;22.60;67.70;;;;;;6076179;28;90055;-69
2023/03/13 13:46:32;;;;;;;5.43;4.38;;;22.70;67.90;;;;;;6070379;28;88834;-69
2023/03/13 13:49:53;;;;;;;5.57;4.63;;;22.60;67.80;;;;;;6075819;28;89068;-69
2023/03/13 13:53:30;;;;;;;6.03;4.60;;;22.60;67.80;;;;;;6064952;28;89434;-69
2023/03/13 13:56:39;;;;;;;5.32;4.60;;;22.60;67.90;;;;;;6070130;28;89384;-70
2023/03/13 13:59:44;;;;;;;5.05;4.20;;;22.60;67.90;;;;;;6074470;28;89007;-69
2023/03/13 14:02:51;;;;;;;5.20;4.20;;;22.60;67.90;;;;;;6070151;28;89300;-69
2023/03/13 14:05:56;;;;;;;5.13;4.30;;;22.60;67.90;;;;;;6076319;28;88373;-69
2023/03/13 14:09:11;;;;;;;5.22;4.28;;;22.60;67.90;;;;;;6067370;28;89092;-69
2023/03/13 14:12:28;;;;;;;4.97;4.45;;;22.60;67.90;;;;;;6073138;28;90334;-69
2023/03/13 14:15:31;;;;;;;5.70;4.55;;;22.60;68.00;;;;;;6063260;28;89950;-70
2023/03/13 14:18:35;;;;;;;4.53;3.97;;;22.70;71.10;;;;;;6079776;28;89060;-70
2023/03/13 14:21:37;;;;;;;5.30;4.00;;;22.70;69.80;;;;;;6078728;28;88721;-70
2023/03/13 14:24:39;;;;;;;4.38;3.97;;;22.70;69.30;;;;;;6078953;28;89442;-69
2023/03/13 14:27:46;;;;;;;5.28;4.20;;;22.70;69.10;;;;;;6065793;28;89177;-70
2023/03/13 14:30:50;;;;;;;4.47;3.90;;;22.70;68.90;;;;;;6078268;28;89060;-70
2023/03/13 14:33:53;;;;;;;5.82;4.07;;;22.70;68.80;;;;;;6078106;28;87990;-70
2023/03/13 14:36:57;;;;;;;4.70;3.80;;;22.70;68.70;;;;;;6064524;28;88402;-70
2023/03/13 14:40:08;;;;;;;5.63;4.05;;;22.70;68.60;;;;;;6066667;28;89471;-70
2023/03/13 14:43:21;;;;;;;4.22;3.80;;;22.70;68.80;;;;;;6063028;28;89109;-70
2023/03/13 14:46:30;;;;;;;5.25;4.20;;;22.70;68.60;;;;;;6072585;28;90482;-70
2023/03/13 14:49:34;;;;;;;4.95;3.90;;;22.70;68.70;;;;;;6074194;28;89009;-70
2023/03/13 14:52:38;;;;;;;5.57;3.75;;;22.70;68.60;;;;;;6072596;28;88454;-70
2023/03/13 14:55:40;;;;;;;4.40;3.83;;;22.70;68.60;;;;;;6083056;28;89170;-70
2023/03/13 14:58:42;;;;;;;4.70;4.05;;;22.70;68.60;;;;;;6075255;28;89060;-70
2023/03/13 15:01:45;;;;;;;4.88;3.92;;;22.70;68.60;;;;;;6059368;28;89334;-70
2023/03/13 15:04:58;;;;;;;5.47;3.50;;;22.70;68.60;;;;;;6079063;28;88769;-71
2023/03/13 15:08:00;;;;;;;4.00;3.53;;;22.70;68.60;;;;;;6077353;28;88119;-70
2023/03/13 15:11:17;;;;;;;4.25;3.40;;;22.70;68.60;;;;;;6076383;28;90186;-70
2023/03/13 15:14:37;;;;;;;4.85;3.50;;;22.70;68.60;;;;;;6079900;28;89447;-72
2023/03/13 15:17:39;;;;;;;5.18;3.88;;;22.70;68.60;;;;;;6072842;28;90013;-71
2023/03/13 15:20:42;;;;;;;3.97;3.47;;;22.70;68.60;;;;;;6080672;28;89102;-71
2023/03/13 15:23:49;;;;;;;3.88;3.35;;;22.70;68.60;;;;;;6053999;28;88221;-70
2023/03/13 15:26:51;;;;;;;4.15;3.60;;;22.70;68.60;;;;;;6078657;28;89001;-72
2023/03/13 15:29:54;;;;;;;3.40;3.08;;;22.70;68.60;;;;;;6069014;28;89359;-70
2023/03/13 15:32:56;;;;;;;5.07;3.38;;;22.70;68.60;;;;;;6065854;28;88031;-71
2023/03/13 15:35:59;;;;;;;3.67;3.28;;;22.70;68.60;;;;;;6075494;28;89085;-71
2023/03/13 15:39:04;;;;;;;3.95;3.40;;;22.70;68.60;;;;;;6081897;28;87295;-71
2023/03/13 15:42:06;;;;;;;3.85;3.40;;;22.70;68.60;;;;;;6075024;28;89042;-71
2023/03/13 15:45:09;;;;;;;3.40;3.10;;;22.70;68.60;;;;;;6085834;28;89184;-71
2023/03/13 15:48:17;;;;;;;4.50;3.53;;;22.70;68.60;;;;;;6079043;28;89989;-70
2023/03/13 15:51:20;;;;;;;4.05;3.22;;;22.70;68.70;;;;;;6077241;28;88947;-70
2023/03/13 15:54:23;;;;;;;4.25;3.40;;;22.70;68.60;;;;;;6084331;28;89147;-71